Monday, September 15, 2014, 5:27 AM EDT

KMDT, Harrisburg International Airport

Location: Middletown, PA, United States Lat: 40.2
Local Time: 5:27 AM EDT ( 9:27 GMT) Lon: -76.767
Time Zone: US/Eastern Elev: 308 ft

Show me the last for .
Show Decoded

2014-09-15 04:56 METAR KMDT 150856Z 35003KT 10SM BKN050 12/09 A3022 =
2014-09-15 03:56 METAR KMDT 150756Z 00000KT 10SM BKN050 12/09 A3022 RMK AO2 SLP233 T01170089 =
2014-09-15 02:56 METAR KMDT 150656Z 00000KT 10SM BKN050 11/09 A3022 =
2014-09-15 01:56 METAR KMDT 150556Z 00000KT 10SM BKN050 11/09 A3022 RMK AO2 SLP235 T01060089
                 10144 20094 56001 =
2014-09-15 00:56 METAR KMDT 150456Z 00000KT 10SM FEW045 11/09 A3022 RMK AO2 SLP235 T01060089
                 401940089 =
2014-09-14 23:56 METAR KMDT 150356Z 00000KT 10SM FEW045 12/09 A3022 =
2014-09-14 22:56 METAR KMDT 150256Z 00000KT 10SM FEW045 11/09 A3022 =
2014-09-14 21:56 METAR KMDT 150156Z 00000KT 10SM FEW045 12/09 A3022 =
2014-09-14 20:56 METAR KMDT 150056Z 00000KT 10SM FEW250 13/09 A3022 =
2014-09-14 19:56 METAR KMDT 142356Z 00000KT 10SM FEW250 13/09 A3021 RMK AO2 SLP232 T01330094
                 10194 20128 55003 =
2014-09-14 18:56 METAR KMDT 142256Z 00000KT 10SM SCT250 17/10 A3021 =
2014-09-14 17:56 METAR KMDT 142156Z 35005KT 10SM BKN230 18/07 A3021 RMK AO2 SLP231 T01830072 =
2014-09-14 16:56 METAR KMDT 142056Z 28003KT 10SM BKN210 18/07 A3022 RMK AO2 SLP235 T01780072
                 56016 =
2014-09-14 15:56 METAR KMDT 141956Z 27007KT 10SM FEW050 BKN220 18/07 A3023 =
2014-09-14 14:56 METAR KMDT 141856Z 27008KT 10SM FEW040 BKN220 18/07 A3024 =
2014-09-14 13:56 METAR KMDT 141756Z 29008KT 10SM SCT040 BKN250 18/08 A3027 RMK AO2 SLP250
                 T01830078 10183 20122 58017 =
2014-09-14 12:56 METAR KMDT 141656Z 29008KT 10SM SCT038 BKN250 17/08 A3029 RMK AO2 SLP256
                 T01720078 =
2014-09-14 11:56 METAR KMDT 141556Z 32007KT 10SM BKN036 BKN250 16/07 A3030 RMK AO2 SLP263
                 T01610067 =
2014-09-14 10:56 METAR KMDT 141456Z 05007KT 10SM SCT030 BKN250 16/07 A3032 RMK AO2 SLP267
                 T01560072 58004 =
2014-09-14 10:07 METAR KMDT 141407Z 35005KT 10SM BKN031 BKN250 13/06 A3033 RMK AO2 T01330061 =
2014-09-14 09:56 METAR KMDT 141356Z VRB04KT 10SM BKN029 BKN250 14/07 A3033 RMK AO2 SLP273
                 T01390067 =
2014-09-14 09:53 METAR KMDT 141353Z 04006KT 10SM BKN029 BKN250 14/07 A3033 RMK AO2 =
2014-09-14 08:56 METAR KMDT 141256Z 33005KT 10SM FEW025 SCT250 13/07 A3033 =
2014-09-14 07:56 METAR KMDT 141156Z 31006KT 10SM SCT250 12/08 A3032 =
2014-09-14 06:56 METAR KMDT 141056Z 31005KT 10SM FEW250 09/07 A3029 RMK AO2 SLP258 T00940067 =
2014-09-14 05:56 METAR KMDT 140956Z 34003KT 10SM CLR 10/07 A3027 =

Support USWX by starting your Amazon purchase here.